createdAt,value
2023-06-25T00:00:00.979Z,5.18
2023-06-25T00:01:32.949Z,5.35
2023-06-25T00:03:05.029Z,6.78
2023-06-25T00:04:36.984Z,5.07
2023-06-25T00:06:08.830Z,6.22
2023-06-25T00:07:41.599Z,4.95
2023-06-25T00:09:13.580Z,5.22
2023-06-25T00:10:45.481Z,5.43
2023-06-25T00:12:17.351Z,5.18
2023-06-25T00:13:49.263Z,5.32
2023-06-25T00:15:21.202Z,5.32
2023-06-25T00:16:58.936Z,6.40
2023-06-25T00:18:31.213Z,6.88
2023-06-25T00:20:03.290Z,5.40
2023-06-25T00:21:35.486Z,5.35
2023-06-25T00:23:08.288Z,5.57
2023-06-25T00:24:41.176Z,4.97
2023-06-25T00:26:13.034Z,7.50
2023-06-25T00:27:50.535Z,6.28
2023-06-25T00:29:22.358Z,6.38
2023-06-25T00:30:54.446Z,5.88
2023-06-25T00:32:26.364Z,5.72
2023-06-25T00:33:58.196Z,7.05
2023-06-25T00:36:00.308Z,6.72
2023-06-25T00:37:38.263Z,6.43
2023-06-25T00:39:10.135Z,7.75
2023-06-25T00:40:42.085Z,5.95
2023-06-25T00:42:14.911Z,7.00
2023-06-25T00:43:46.844Z,6.00
2023-06-25T00:45:19.027Z,7.15
2023-06-25T00:46:51.187Z,7.05
2023-06-25T00:48:24.151Z,7.10
2023-06-25T00:49:55.973Z,7.78
2023-06-25T00:51:29.013Z,8.85
2023-06-25T00:53:03.264Z,9.60
2023-06-25T00:54:36.271Z,8.40
2023-06-25T00:56:08.953Z,8.55
2023-06-25T00:57:42.671Z,7.80
2023-06-25T00:59:14.909Z,7.50
2023-06-25T01:00:47.651Z,7.53
2023-06-25T01:02:27.294Z,9.93
2023-06-25T01:04:10.101Z,10.05
2023-06-25T01:06:13.147Z,8.55
2023-06-25T01:07:46.632Z,7.38
2023-06-25T01:09:19.203Z,10.82
2023-06-25T01:10:51.099Z,8.05
2023-06-25T01:12:23.554Z,9.27
2023-06-25T01:13:55.424Z,8.95
2023-06-25T01:15:27.574Z,9.43
2023-06-25T01:16:59.872Z,9.82
2023-06-25T01:18:31.786Z,8.13
2023-06-25T01:20:07.181Z,8.90
2023-06-25T01:21:40.629Z,9.02
2023-06-25T01:23:13.067Z,8.70
2023-06-25T01:24:46.371Z,9.52
2023-06-25T01:26:18.198Z,8.93
2023-06-25T01:27:52.809Z,8.80
2023-06-25T01:29:24.652Z,9.65
2023-06-25T01:30:58.052Z,8.27
2023-06-25T01:32:30.172Z,8.73
2023-06-25T01:34:02.333Z,8.98
2023-06-25T01:35:34.568Z,9.07
2023-06-25T01:37:07.816Z,9.27
2023-06-25T01:38:39.697Z,10.13
2023-06-25T01:40:12.031Z,9.90
2023-06-25T01:41:45.014Z,8.48
2023-06-25T01:43:17.044Z,9.20
2023-06-25T01:44:49.246Z,9.68
2023-06-25T01:46:21.240Z,10.15
2023-06-25T01:47:53.458Z,8.90
2023-06-25T01:49:32.483Z,8.52
2023-06-25T01:51:05.034Z,10.45
2023-06-25T01:52:36.891Z,10.70
2023-06-25T01:54:08.782Z,10.32
2023-06-25T01:55:40.888Z,9.20
2023-06-25T01:57:14.315Z,9.27
2023-06-25T01:58:46.214Z,9.57
2023-06-25T02:00:18.489Z,11.35
2023-06-25T02:01:50.458Z,9.23
2023-06-25T02:03:22.484Z,9.77
2023-06-25T02:04:54.362Z,9.80
2023-06-25T02:06:26.694Z,12.10
2023-06-25T02:07:58.536Z,8.43
2023-06-25T02:09:30.725Z,8.88
2023-06-25T02:11:03.292Z,9.57
2023-06-25T02:12:35.141Z,9.05
2023-06-25T02:14:07.626Z,9.48
2023-06-25T02:15:39.685Z,8.85
2023-06-25T02:17:12.164Z,8.65
2023-06-25T02:18:44.034Z,8.77
2023-06-25T02:20:15.915Z,8.77
2023-06-25T02:21:47.947Z,8.73
2023-06-25T02:23:19.835Z,8.40
2023-06-25T02:24:51.751Z,11.18
2023-06-25T02:26:23.841Z,8.85
2023-06-25T02:27:55.674Z,9.30
2023-06-25T02:29:27.523Z,9.38
2023-06-25T02:30:59.579Z,9.63
2023-06-25T02:32:31.490Z,9.60
2023-06-25T02:34:03.365Z,8.20
2023-06-25T02:35:35.552Z,9.75
2023-06-25T02:37:17.478Z,9.73
2023-06-25T02:38:49.588Z,11.95
2023-06-25T02:40:22.470Z,13.88
2023-06-25T02:41:54.375Z,12.00
2023-06-25T02:43:26.381Z,10.63
2023-06-25T02:44:58.258Z,11.43
2023-06-25T02:46:30.215Z,10.43
2023-06-25T02:48:03.063Z,9.43
2023-06-25T02:49:35.144Z,9.48
2023-06-25T02:51:07.340Z,8.63
2023-06-25T02:52:39.235Z,9.18
2023-06-25T02:54:11.105Z,10.68
2023-06-25T02:55:43.071Z,10.02
2023-06-25T02:57:15.329Z,8.50
2023-06-25T02:58:47.203Z,10.05
2023-06-25T03:00:19.336Z,8.75
2023-06-25T03:01:51.733Z,8.20
2023-06-25T03:03:23.825Z,9.23
2023-06-25T03:04:55.699Z,9.52
2023-06-25T03:06:27.696Z,9.60
2023-06-25T03:08:00.459Z,9.75
2023-06-25T03:09:32.809Z,9.55
2023-06-25T03:11:04.724Z,11.40
2023-06-25T03:12:36.694Z,9.05
2023-06-25T03:14:10.327Z,8.68
2023-06-25T03:15:43.799Z,9.40
2023-06-25T03:17:15.910Z,9.20
2023-06-25T03:18:47.820Z,8.80
2023-06-25T03:20:19.791Z,9.90
2023-06-25T03:21:51.803Z,10.85
2023-06-25T03:23:24.319Z,8.20
2023-06-25T03:24:56.677Z,9.25
2023-06-25T03:26:28.885Z,10.63
2023-06-25T03:28:01.195Z,9.15
2023-06-25T03:29:33.106Z,7.88
2023-06-25T03:31:05.133Z,8.35
2023-06-25T03:32:46.226Z,7.25
2023-06-25T03:34:18.586Z,8.00
2023-06-25T03:35:51.122Z,11.52
2023-06-25T03:37:23.876Z,8.82
2023-06-25T03:38:56.528Z,8.48
2023-06-25T03:40:28.442Z,8.05
2023-06-25T03:42:00.376Z,8.13
2023-06-25T03:43:32.340Z,8.15
2023-06-25T03:45:04.616Z,11.80
2023-06-25T03:46:37.134Z,10.07
2023-06-25T03:48:09.192Z,7.63
2023-06-25T03:49:41.533Z,9.85
2023-06-25T03:51:13.483Z,9.70
2023-06-25T03:52:47.403Z,9.30
2023-06-25T03:54:19.230Z,8.32
2023-06-25T03:55:51.112Z,8.20
2023-06-25T03:57:24.486Z,10.60
2023-06-25T03:58:56.315Z,7.60
2023-06-25T04:00:28.161Z,8.48
2023-06-25T04:02:00.225Z,8.32
2023-06-25T04:03:32.144Z,8.65
2023-06-25T04:05:04.087Z,7.35
2023-06-25T04:06:36.733Z,8.00
2023-06-25T04:08:08.863Z,7.90
2023-06-25T04:09:40.752Z,7.13
2023-06-25T04:11:12.792Z,8.80
2023-06-25T04:12:45.071Z,7.75
2023-06-25T04:14:16.961Z,6.53
2023-06-25T04:15:49.319Z,8.55
2023-06-25T04:17:22.721Z,7.55
2023-06-25T04:18:55.742Z,8.23
2023-06-25T04:20:29.208Z,7.28
2023-06-25T04:22:01.109Z,7.97
2023-06-25T04:23:32.970Z,6.60
2023-06-25T04:25:05.694Z,7.07
2023-06-25T04:26:37.670Z,6.97
2023-06-25T04:28:17.023Z,7.78
2023-06-25T04:29:48.972Z,7.10
2023-06-25T04:31:24.068Z,7.07
2023-06-25T04:32:57.687Z,9.38
2023-06-25T04:34:29.600Z,6.80
2023-06-25T04:36:01.559Z,7.72
2023-06-25T04:37:33.716Z,7.28
2023-06-25T04:39:05.662Z,7.05
2023-06-25T04:40:38.860Z,7.72
2023-06-25T04:42:12.501Z,6.63
2023-06-25T04:43:44.377Z,6.80
2023-06-25T04:45:18.086Z,6.50
2023-06-25T04:46:50.508Z,7.60
2023-06-25T04:48:22.432Z,6.93
2023-06-25T04:49:54.313Z,8.63
2023-06-25T04:51:26.187Z,7.55
2023-06-25T04:52:58.685Z,7.18
2023-06-25T04:54:30.537Z,7.55
2023-06-25T04:56:02.374Z,7.35
2023-06-25T04:57:34.259Z,6.82
2023-06-25T04:59:06.184Z,7.35
2023-06-25T05:00:38.020Z,6.55
2023-06-25T05:02:09.859Z,6.78
2023-06-25T05:03:41.745Z,7.38
2023-06-25T05:05:13.609Z,6.85
2023-06-25T05:06:45.823Z,6.10
2023-06-25T05:08:17.721Z,6.22
2023-06-25T05:09:49.620Z,6.97
2023-06-25T05:11:21.482Z,5.63
2023-06-25T05:12:53.346Z,6.60
2023-06-25T05:14:26.273Z,6.10
2023-06-25T05:15:58.484Z,7.00
2023-06-25T05:17:30.399Z,6.50
2023-06-25T05:19:02.266Z,5.72
2023-06-25T05:20:37.030Z,5.97
2023-06-25T05:22:08.955Z,6.43
2023-06-25T05:23:45.687Z,6.20
2023-06-25T05:25:17.501Z,6.80
2023-06-25T05:26:49.431Z,6.50
2023-06-25T05:28:21.263Z,6.47
2023-06-25T05:29:53.113Z,5.90
2023-06-25T05:31:25.346Z,5.57
2023-06-25T05:32:58.050Z,5.18
2023-06-25T05:34:29.981Z,5.40
2023-06-25T05:36:02.746Z,5.05
2023-06-25T05:37:34.749Z,5.72
2023-06-25T05:39:06.633Z,7.50
2023-06-25T05:40:38.689Z,6.50
2023-06-25T05:42:11.779Z,5.47
2023-06-25T05:43:43.636Z,5.28
2023-06-25T05:45:15.610Z,5.40
2023-06-25T05:46:47.499Z,4.95
2023-06-25T05:48:19.364Z,5.18
2023-06-25T05:49:51.233Z,5.05
2023-06-25T05:51:23.116Z,4.95
2023-06-25T05:52:54.956Z,5.07
2023-06-25T05:54:26.831Z,5.40
2023-06-25T05:55:58.650Z,4.47
2023-06-25T05:57:30.492Z,4.28
2023-06-25T05:59:02.390Z,4.82
2023-06-25T06:00:34.261Z,5.05
2023-06-25T06:02:09.326Z,5.07
2023-06-25T06:03:41.280Z,5.03
2023-06-25T06:05:13.142Z,5.65
2023-06-25T06:06:45.165Z,4.75
2023-06-25T06:08:17.079Z,4.30
2023-06-25T06:09:48.929Z,4.15
2023-06-25T06:11:20.777Z,5.20
2023-06-25T06:12:52.617Z,4.60
2023-06-25T06:14:24.480Z,4.65
2023-06-25T06:15:56.341Z,4.18
2023-06-25T06:17:28.179Z,4.38
2023-06-25T06:19:00.329Z,4.68
2023-06-25T06:20:32.158Z,5.25
2023-06-25T06:22:04.343Z,4.03
2023-06-25T06:23:36.154Z,4.53
2023-06-25T06:25:08.416Z,4.53
2023-06-25T06:26:40.277Z,4.45
2023-06-25T06:28:12.147Z,4.40
2023-06-25T06:29:44.109Z,4.25
2023-06-25T06:31:16.066Z,3.83
2023-06-25T06:32:47.950Z,4.55
2023-06-25T06:34:19.993Z,4.40
2023-06-25T06:35:51.852Z,4.43
2023-06-25T06:37:23.683Z,5.07
2023-06-25T06:38:55.538Z,4.38
2023-06-25T06:40:27.635Z,3.97
2023-06-25T06:41:59.494Z,5.55
2023-06-25T06:43:31.897Z,4.38
2023-06-25T06:45:04.296Z,4.13
2023-06-25T06:46:37.092Z,4.35
2023-06-25T06:48:10.090Z,4.50
2023-06-25T06:49:41.926Z,4.15
2023-06-25T06:51:13.763Z,4.28
2023-06-25T06:52:46.537Z,3.80
2023-06-25T06:54:18.369Z,3.72
2023-06-25T06:55:50.424Z,3.92
2023-06-25T06:57:22.357Z,4.38
2023-06-25T06:58:54.253Z,3.78
2023-06-25T07:00:26.257Z,3.60
2023-06-25T07:01:58.164Z,4.78
2023-06-25T07:03:30.060Z,5.07
2023-06-25T07:05:02.177Z,4.60
2023-06-25T07:06:34.110Z,3.50
2023-06-25T07:08:06.776Z,3.85
2023-06-25T07:09:38.657Z,3.88
2023-06-25T07:11:10.509Z,4.00
2023-06-25T07:12:42.498Z,3.35
2023-06-25T07:14:14.423Z,3.88
2023-06-25T07:15:46.272Z,3.83
2023-06-25T07:17:18.197Z,4.10
2023-06-25T07:18:50.099Z,3.90
2023-06-25T07:20:21.995Z,3.55
2023-06-25T07:21:53.900Z,4.45
2023-06-25T07:23:25.825Z,4.10
2023-06-25T07:24:57.724Z,4.47
2023-06-25T07:26:29.675Z,4.18
2023-06-25T07:28:02.019Z,4.38
2023-06-25T07:29:34.912Z,3.83
2023-06-25T07:31:06.829Z,4.78
2023-06-25T07:32:38.728Z,4.28
2023-06-25T07:34:10.699Z,3.53
2023-06-25T07:35:42.564Z,4.25
2023-06-25T07:37:15.355Z,3.78
2023-06-25T07:38:47.262Z,3.25
2023-06-25T07:40:19.200Z,4.05
2023-06-25T07:41:51.077Z,3.63
2023-06-25T07:43:23.146Z,3.30
2023-06-25T07:44:57.383Z,3.15
2023-06-25T07:46:29.703Z,3.40
2023-06-25T07:48:01.755Z,3.40
2023-06-25T07:49:33.684Z,3.20
2023-06-25T07:51:05.580Z,3.80
2023-06-25T07:52:37.520Z,3.85
2023-06-25T07:54:09.625Z,3.05
2023-06-25T07:56:00.423Z,3.05
2023-06-25T07:57:34.448Z,2.90
2023-06-25T07:59:06.354Z,3.50
2023-06-25T08:00:38.380Z,2.97
2023-06-25T08:02:10.658Z,4.43
2023-06-25T08:03:42.638Z,3.60
2023-06-25T08:05:14.732Z,3.53
2023-06-25T08:06:46.646Z,3.20
2023-06-25T08:08:18.608Z,3.53
2023-06-25T08:09:54.173Z,2.80
2023-06-25T08:11:31.009Z,2.78
2023-06-25T08:13:03.423Z,3.08
2023-06-25T08:14:35.314Z,3.30
2023-06-25T08:16:07.214Z,3.20
2023-06-25T08:17:39.194Z,2.80
2023-06-25T08:19:11.529Z,3.00
2023-06-25T08:20:44.358Z,2.90
2023-06-25T08:22:16.243Z,2.85
2023-06-25T08:23:48.140Z,3.10
2023-06-25T08:25:22.041Z,3.08
2023-06-25T08:26:53.890Z,2.83
2023-06-25T08:28:25.725Z,3.05
2023-06-25T08:29:57.576Z,3.10
2023-06-25T08:31:29.501Z,2.90
2023-06-25T08:33:01.435Z,3.17
2023-06-25T08:34:33.965Z,2.78
2023-06-25T08:36:06.486Z,2.90
2023-06-25T08:37:38.462Z,3.28
2023-06-25T08:39:10.307Z,2.88
2023-06-25T08:40:42.154Z,3.17
2023-06-25T08:42:14.044Z,2.92
2023-06-25T08:43:47.352Z,2.83
2023-06-25T08:45:19.530Z,3.33
2023-06-25T08:46:55.507Z,2.95
2023-06-25T08:48:30.200Z,3.42
2023-06-25T08:50:02.053Z,2.75
2023-06-25T08:51:36.889Z,2.75
2023-06-25T08:53:09.364Z,3.28
2023-06-25T08:54:41.503Z,2.55
2023-06-25T08:56:16.740Z,2.88
2023-06-25T08:57:48.560Z,2.47
2023-06-25T08:59:20.947Z,2.70
2023-06-25T09:00:53.153Z,3.03
2023-06-25T09:02:25.092Z,2.50
2023-06-25T09:03:56.993Z,2.38
2023-06-25T09:05:28.953Z,7.90
2023-06-25T09:07:08.922Z,2.60
2023-06-25T09:08:41.956Z,2.80
2023-06-25T09:10:14.781Z,2.60
2023-06-25T09:11:46.630Z,2.80
2023-06-25T09:13:26.418Z,2.85
2023-06-25T09:14:58.855Z,2.95
2023-06-25T09:16:31.024Z,2.45
2023-06-25T09:18:03.958Z,3.20
2023-06-25T09:19:35.830Z,3.75
2023-06-25T09:21:11.511Z,3.15
2023-06-25T09:22:50.914Z,3.72
2023-06-25T09:24:23.168Z,2.60
2023-06-25T09:25:54.978Z,3.28
2023-06-25T09:27:26.835Z,3.10
2023-06-25T09:29:01.219Z,3.20
2023-06-25T09:30:35.680Z,2.42
2023-06-25T09:32:12.296Z,2.70
2023-06-25T09:33:50.560Z,2.75
2023-06-25T09:35:24.012Z,2.88
2023-06-25T09:36:57.123Z,2.72
2023-06-25T09:38:28.954Z,2.97
2023-06-25T09:40:00.780Z,2.75
2023-06-25T09:41:37.508Z,3.10
2023-06-25T09:43:09.718Z,2.58
2023-06-25T09:44:42.238Z,2.60
2023-06-25T09:46:16.181Z,2.97
2023-06-25T09:47:50.189Z,3.33
2023-06-25T09:49:23.206Z,2.60
2023-06-25T09:50:58.286Z,2.65
2023-06-25T09:52:30.345Z,2.80
2023-06-25T09:54:06.919Z,3.03
2023-06-25T09:55:39.038Z,2.75
2023-06-25T09:57:13.827Z,2.47
2023-06-25T09:58:45.903Z,3.00
2023-06-25T10:00:20.322Z,2.85
2023-06-25T10:01:53.483Z,2.60
2023-06-25T10:03:25.928Z,2.63
2023-06-25T10:04:57.899Z,2.40
2023-06-25T10:06:30.013Z,2.65
2023-06-25T10:08:03.005Z,3.13
2023-06-25T10:09:34.886Z,3.17
2023-06-25T10:11:07.436Z,2.60
2023-06-25T10:12:39.476Z,3.05
2023-06-25T10:14:15.003Z,3.72
2023-06-25T10:15:48.094Z,2.95
2023-06-25T10:17:22.474Z,2.78
2023-06-25T10:18:57.486Z,2.70
2023-06-25T10:20:33.738Z,2.65
2023-06-25T10:22:10.494Z,2.65
2023-06-25T10:23:42.685Z,4.07
2023-06-25T10:25:28.156Z,2.90
2023-06-25T10:27:00.001Z,2.63
2023-06-25T10:28:35.907Z,3.00
2023-06-25T10:30:15.347Z,2.67
2023-06-25T10:31:48.730Z,3.10
2023-06-25T10:33:20.989Z,2.70
2023-06-25T10:34:57.605Z,2.80
2023-06-25T10:36:29.423Z,2.90
2023-06-25T10:38:01.269Z,2.92
2023-06-25T10:39:40.784Z,2.60
2023-06-25T10:41:12.634Z,2.53
2023-06-25T10:42:44.474Z,2.72
2023-06-25T10:44:16.587Z,3.00
2023-06-25T10:45:56.391Z,2.60
2023-06-25T10:47:28.322Z,2.90
2023-06-25T10:49:01.586Z,3.13
2023-06-25T10:50:34.393Z,2.83
2023-06-25T10:52:06.785Z,3.25
2023-06-25T10:53:38.913Z,3.03
2023-06-25T10:55:10.894Z,3.03
2023-06-25T10:56:42.764Z,2.90
2023-06-25T10:58:17.357Z,3.15
2023-06-25T10:59:51.501Z,3.00
2023-06-25T11:01:23.635Z,3.10
2023-06-25T11:02:56.250Z,2.70
2023-06-25T11:04:28.152Z,3.13
2023-06-25T11:06:01.483Z,3.00
2023-06-25T11:07:33.516Z,3.00
2023-06-25T11:09:05.340Z,3.10
2023-06-25T11:10:39.144Z,3.08
2023-06-25T11:12:10.984Z,3.40
2023-06-25T11:13:42.808Z,3.00
2023-06-25T11:15:14.651Z,2.63
2023-06-25T11:16:49.627Z,2.85
2023-06-25T11:18:22.812Z,3.13
2023-06-25T11:19:56.193Z,3.42
2023-06-25T11:21:28.435Z,4.15
2023-06-25T11:23:02.583Z,4.32
2023-06-25T11:24:38.573Z,3.35
2023-06-25T11:26:13.752Z,5.82
2023-06-25T11:27:45.614Z,2.88
2023-06-25T11:29:18.037Z,3.28
2023-06-25T11:30:49.869Z,2.75
2023-06-25T11:32:25.169Z,3.85
2023-06-25T11:33:57.282Z,3.00
2023-06-25T11:35:29.115Z,3.00
2023-06-25T11:37:14.777Z,3.15
2023-06-25T11:38:47.156Z,2.75
2023-06-25T11:40:26.954Z,2.88
2023-06-25T11:41:58.782Z,2.50
2023-06-25T11:43:34.078Z,2.70
2023-06-25T11:45:07.012Z,2.67
2023-06-25T11:46:39.635Z,2.58
2023-06-25T11:48:15.887Z,2.88
2023-06-25T11:49:54.204Z,2.70
2023-06-25T11:51:26.048Z,3.95
2023-06-25T11:52:57.902Z,2.50
2023-06-25T11:54:29.873Z,2.97
2023-06-25T11:56:02.110Z,2.63
2023-06-25T11:57:34.122Z,2.67
2023-06-25T11:59:05.917Z,3.08
2023-06-25T12:00:38.348Z,2.53
2023-06-25T12:02:11.197Z,2.42
2023-06-25T12:03:43.101Z,2.80
2023-06-25T12:05:15.037Z,2.90
2023-06-25T12:06:46.894Z,3.38
2023-06-25T12:08:18.804Z,2.85
2023-06-25T12:09:50.743Z,3.72
2023-06-25T12:11:22.781Z,3.90
2023-06-25T12:12:56.157Z,2.55
2023-06-25T12:14:28.025Z,3.05
2023-06-25T12:15:59.975Z,2.65
2023-06-25T12:17:31.879Z,2.70
2023-06-25T12:19:05.415Z,2.95
2023-06-25T12:20:37.284Z,2.42
2023-06-25T12:22:09.664Z,2.75
2023-06-25T12:23:41.799Z,2.83
2023-06-25T12:25:13.693Z,2.72
2023-06-25T12:26:45.669Z,2.90
2023-06-25T12:28:17.517Z,2.47
2023-06-25T12:29:49.360Z,3.05
2023-06-25T12:31:22.220Z,2.75
2023-06-25T12:32:56.645Z,3.22
2023-06-25T12:34:29.832Z,2.78
2023-06-25T12:36:01.664Z,2.45
2023-06-25T12:37:33.514Z,2.72
2023-06-25T12:39:05.349Z,2.88
2023-06-25T12:40:37.192Z,3.25
2023-06-25T12:42:09.051Z,2.90
2023-06-25T12:43:40.908Z,2.88
2023-06-25T12:45:12.786Z,2.95
2023-06-25T12:46:44.653Z,3.03
2023-06-25T12:48:16.522Z,2.80
2023-06-25T12:49:48.345Z,2.67
2023-06-25T12:51:20.194Z,3.30
2023-06-25T12:52:52.093Z,2.80
2023-06-25T12:54:24.110Z,3.25
2023-06-25T12:55:55.934Z,2.70
2023-06-25T12:57:28.101Z,2.80
2023-06-25T12:59:00.026Z,2.70
2023-06-25T13:00:43.980Z,3.05
2023-06-25T13:02:23.695Z,3.35
2023-06-25T13:03:55.614Z,3.10
2023-06-25T13:05:27.445Z,2.80
2023-06-25T13:06:59.351Z,2.78
2023-06-25T13:08:31.241Z,2.63
2023-06-25T13:10:03.328Z,2.65
2023-06-25T13:11:35.727Z,3.13
2023-06-25T13:13:08.497Z,2.63
2023-06-25T13:14:40.367Z,3.22
2023-06-25T13:16:13.799Z,2.90
2023-06-25T13:17:45.711Z,2.78
2023-06-25T13:19:17.641Z,2.72
2023-06-25T13:20:49.549Z,2.95
2023-06-25T13:22:21.373Z,3.10
2023-06-25T13:23:53.220Z,2.97
2023-06-25T13:25:25.092Z,4.25
2023-06-25T13:26:59.042Z,3.22
2023-06-25T13:28:31.717Z,2.65
2023-06-25T13:30:04.347Z,3.03
2023-06-25T13:31:36.327Z,2.55
2023-06-25T13:33:08.330Z,2.58
2023-06-25T13:34:40.246Z,3.20
2023-06-25T13:36:12.091Z,3.03
2023-06-25T13:37:44.008Z,2.47
2023-06-25T13:39:15.840Z,2.88
2023-06-25T13:40:47.797Z,3.00
2023-06-25T13:42:20.134Z,2.95
2023-06-25T13:43:52.978Z,2.95
2023-06-25T13:45:24.922Z,2.65
2023-06-25T13:46:56.857Z,2.70
2023-06-25T13:48:30.184Z,3.58
2023-06-25T13:50:02.306Z,2.88
2023-06-25T13:51:34.442Z,3.00
2023-06-25T13:53:06.530Z,4.20
2023-06-25T13:54:38.368Z,2.80
2023-06-25T13:56:10.993Z,4.70
2023-06-25T13:57:43.810Z,2.80
2023-06-25T13:59:15.650Z,2.60
2023-06-25T14:00:47.680Z,2.97
2023-06-25T14:02:19.581Z,2.70
2023-06-25T14:03:51.512Z,2.75
2023-06-25T14:05:23.663Z,2.45
2023-06-25T14:06:55.598Z,2.72
2023-06-25T14:08:27.477Z,2.58
2023-06-25T14:09:59.425Z,2.28
2023-06-25T14:11:31.268Z,2.65
2023-06-25T14:13:03.185Z,2.67
2023-06-25T14:14:35.563Z,2.45
2023-06-25T14:16:15.558Z,2.88
2023-06-25T14:17:48.069Z,2.90
2023-06-25T14:19:21.052Z,2.90
2023-06-25T14:20:52.929Z,2.67
2023-06-25T14:22:24.854Z,2.67
2023-06-25T14:23:56.743Z,2.40
2023-06-25T14:25:29.565Z,2.20
2023-06-25T14:27:01.416Z,2.90
2023-06-25T14:28:34.152Z,4.72
2023-06-25T14:30:06.450Z,3.10
2023-06-25T14:31:38.666Z,3.40
2023-06-25T14:33:10.528Z,2.50
2023-06-25T14:34:42.362Z,4.47
2023-06-25T14:36:14.195Z,2.67
2023-06-25T14:37:46.649Z,2.70
2023-06-25T14:39:18.543Z,2.83
2023-06-25T14:40:50.360Z,2.70
2023-06-25T14:42:22.232Z,2.90
2023-06-25T14:43:54.088Z,2.75
2023-06-25T14:45:25.921Z,2.58
2023-06-25T14:46:57.764Z,3.45
2023-06-25T14:48:29.658Z,3.10
2023-06-25T14:50:02.270Z,2.83
2023-06-25T14:51:34.205Z,2.75
2023-06-25T14:53:06.088Z,2.42
2023-06-25T14:54:37.965Z,3.33
2023-06-25T14:56:09.822Z,2.50
2023-06-25T14:57:41.682Z,2.53
2023-06-25T14:59:13.584Z,2.85
2023-06-25T15:00:45.448Z,2.40
2023-06-25T15:02:17.449Z,2.60
2023-06-25T15:03:49.477Z,2.53
2023-06-25T15:05:21.479Z,2.50
2023-06-25T15:06:53.359Z,2.55
2023-06-25T15:08:26.002Z,2.80
2023-06-25T15:09:57.821Z,3.03
2023-06-25T15:11:29.661Z,2.70
2023-06-25T15:13:01.545Z,2.42
2023-06-25T15:14:33.401Z,2.60
2023-06-25T15:16:05.469Z,3.03
2023-06-25T15:17:37.330Z,2.55
2023-06-25T15:19:09.223Z,2.70
2023-06-25T15:20:41.139Z,2.53
2023-06-25T15:22:12.965Z,3.03
2023-06-25T15:23:46.252Z,3.40
2023-06-25T15:25:18.116Z,2.67
2023-06-25T15:26:49.954Z,2.60
2023-06-25T15:28:21.789Z,2.95
2023-06-25T15:29:53.650Z,2.83
2023-06-25T15:31:25.556Z,2.70
2023-06-25T15:32:57.537Z,2.70
2023-06-25T15:34:29.369Z,2.80
2023-06-25T15:36:01.353Z,2.92
2023-06-25T15:37:33.192Z,2.47
2023-06-25T15:39:05.932Z,3.50
2023-06-25T15:40:38.303Z,2.88
2023-06-25T15:42:10.511Z,2.70
2023-06-25T15:43:42.328Z,3.10
2023-06-25T15:45:14.329Z,2.50
2023-06-25T15:46:46.587Z,2.40
2023-06-25T15:48:18.630Z,2.72
2023-06-25T15:49:50.554Z,2.28
2023-06-25T15:51:22.434Z,2.45
2023-06-25T15:52:54.296Z,2.85
2023-06-25T15:54:26.866Z,2.63
2023-06-25T15:56:00.568Z,2.65
2023-06-25T15:57:32.399Z,2.53
2023-06-25T15:59:04.373Z,2.63
2023-06-25T16:00:38.948Z,2.78
2023-06-25T16:02:11.332Z,2.92
2023-06-25T16:03:43.316Z,2.53
2023-06-25T16:05:15.964Z,2.92
2023-06-25T16:06:47.855Z,2.67
2023-06-25T16:08:19.864Z,2.42
2023-06-25T16:09:51.684Z,2.50
2023-06-25T16:11:24.833Z,3.35
2023-06-25T16:12:57.648Z,2.28
2023-06-25T16:14:29.502Z,2.58
2023-06-25T16:16:01.405Z,2.85
2023-06-25T16:17:33.318Z,2.38
2023-06-25T16:19:29.641Z,2.33
2023-06-25T16:20:57.164Z,1.83
2023-06-25T16:22:29.028Z,2.95
2023-06-25T16:24:01.018Z,2.55
2023-06-25T16:25:32.859Z,2.60
2023-06-25T16:27:05.091Z,2.42
2023-06-25T16:28:39.470Z,2.95
2023-06-25T16:30:11.628Z,2.47
2023-06-25T16:31:43.533Z,2.63
2023-06-25T16:33:15.551Z,2.20
2023-06-25T16:34:47.418Z,2.38
2023-06-25T16:36:19.263Z,2.60
2023-06-25T16:37:51.826Z,2.67
2023-06-25T16:39:23.736Z,2.70
2023-06-25T16:40:56.053Z,2.65
2023-06-25T16:42:27.878Z,2.90
2023-06-25T16:43:59.704Z,2.78
2023-06-25T16:45:31.777Z,2.50
2023-06-25T16:47:03.780Z,2.53
2023-06-25T16:48:35.694Z,2.42
2023-06-25T16:50:08.981Z,2.72
2023-06-25T16:51:40.855Z,2.85
2023-06-25T16:53:12.799Z,2.50
2023-06-25T16:54:44.675Z,2.90
2023-06-25T16:56:16.622Z,2.85
2023-06-25T16:57:48.525Z,2.92
2023-06-25T16:59:20.417Z,3.67
2023-06-25T17:00:52.401Z,3.20
2023-06-25T17:02:24.332Z,2.45
2023-06-25T17:03:56.283Z,2.88
2023-06-25T17:05:28.136Z,2.42
2023-06-25T17:07:00.059Z,2.70
2023-06-25T17:08:32.047Z,3.00
2023-06-25T17:10:04.035Z,2.83
2023-06-25T17:11:35.980Z,2.63
2023-06-25T17:13:08.187Z,3.15
2023-06-25T17:14:41.927Z,2.80
2023-06-25T17:16:13.884Z,2.88
2023-06-25T17:17:45.878Z,3.30
2023-06-25T17:19:19.057Z,2.92
2023-06-25T17:20:50.955Z,2.92
2023-06-25T17:22:22.850Z,2.67
2023-06-25T17:23:54.688Z,2.90
2023-06-25T17:25:26.526Z,3.05
2023-06-25T17:26:58.438Z,2.80
2023-06-25T17:28:30.261Z,2.70
2023-06-25T17:30:02.121Z,2.88
2023-06-25T17:31:35.397Z,3.25
2023-06-25T17:33:07.342Z,2.75
2023-06-25T17:34:41.962Z,2.80
2023-06-25T17:36:14.044Z,2.53
2023-06-25T17:37:45.965Z,2.90
2023-06-25T17:39:17.796Z,2.75
2023-06-25T17:40:49.810Z,2.85
2023-06-25T17:42:21.688Z,2.85
2023-06-25T17:43:53.619Z,3.35
2023-06-25T17:45:26.908Z,2.90
2023-06-25T17:46:58.736Z,2.42
2023-06-25T17:48:30.975Z,3.00
2023-06-25T17:50:03.028Z,2.90
2023-06-25T17:51:34.870Z,3.08
2023-06-25T17:53:06.976Z,2.85
2023-06-25T17:54:38.843Z,2.78
2023-06-25T17:56:10.912Z,3.25
2023-06-25T17:57:44.765Z,3.20
2023-06-25T17:59:18.131Z,3.40
2023-06-25T18:00:50.052Z,2.95
2023-06-25T18:02:21.936Z,2.83
2023-06-25T18:03:54.720Z,2.80
2023-06-25T18:05:27.978Z,3.05
2023-06-25T18:06:59.900Z,2.72
2023-06-25T18:08:31.847Z,3.10
2023-06-25T18:10:03.869Z,3.15
2023-06-25T18:11:35.998Z,3.40
2023-06-25T18:13:07.900Z,2.97
2023-06-25T18:14:39.839Z,2.80
2023-06-25T18:16:11.757Z,2.70
2023-06-25T18:17:46.395Z,3.72
2023-06-25T18:19:18.760Z,2.90
2023-06-25T18:20:50.720Z,3.05
2023-06-25T18:22:22.886Z,2.78
2023-06-25T18:23:54.779Z,3.15
2023-06-25T18:25:26.613Z,2.80
2023-06-25T18:26:58.468Z,3.25
2023-06-25T18:28:30.315Z,3.13
2023-06-25T18:30:02.164Z,2.78
2023-06-25T18:31:34.828Z,3.55
2023-06-25T18:33:06.879Z,3.20
2023-06-25T18:34:38.783Z,3.20
2023-06-25T18:36:10.802Z,3.38
2023-06-25T18:37:45.523Z,3.63
2023-06-25T18:39:17.423Z,2.88
2023-06-25T18:40:49.278Z,4.07
2023-06-25T18:42:21.114Z,2.83
2023-06-25T18:43:52.954Z,4.03
2023-06-25T18:45:24.917Z,3.10
2023-06-25T18:46:56.980Z,2.88
2023-06-25T18:48:28.956Z,2.85
2023-06-25T18:50:01.921Z,3.25
2023-06-25T18:51:34.144Z,3.55
2023-06-25T18:53:06.000Z,3.10
2023-06-25T18:54:37.847Z,3.08
2023-06-25T18:56:09.830Z,2.88
2023-06-25T18:57:41.726Z,3.10
2023-06-25T18:59:15.413Z,3.38
2023-06-25T19:00:47.598Z,2.83
2023-06-25T19:02:19.459Z,3.13
2023-06-25T19:03:51.542Z,3.00
2023-06-25T19:05:23.564Z,3.17
2023-06-25T19:06:55.637Z,2.85
2023-06-25T19:08:27.577Z,3.20
2023-06-25T19:10:01.025Z,3.72
2023-06-25T19:11:32.880Z,3.17
2023-06-25T19:13:04.873Z,3.22
2023-06-25T19:14:36.688Z,3.58
2023-06-25T19:16:08.612Z,3.97
2023-06-25T19:17:40.470Z,4.70
2023-06-25T19:19:12.341Z,4.80
2023-06-25T19:20:44.423Z,3.55
2023-06-25T19:22:16.287Z,3.20
2023-06-25T19:23:48.107Z,3.42
2023-06-25T19:25:20.241Z,3.40
2023-06-25T19:26:52.146Z,3.33
2023-06-25T19:28:24.009Z,3.38
2023-06-25T19:29:56.563Z,3.75
2023-06-25T19:31:28.547Z,4.47
2023-06-25T19:33:00.596Z,3.40
2023-06-25T19:34:32.461Z,2.80
2023-06-25T19:36:04.501Z,3.20
2023-06-25T19:37:36.405Z,4.13
2023-06-25T19:39:08.297Z,3.80
2023-06-25T19:40:40.378Z,3.80
2023-06-25T19:42:12.476Z,2.83
2023-06-25T19:43:44.397Z,3.63
2023-06-25T19:45:16.693Z,3.00
2023-06-25T19:46:48.693Z,3.40
2023-06-25T19:48:20.717Z,3.13
2023-06-25T19:49:53.669Z,4.32
2023-06-25T19:51:25.543Z,3.08
2023-06-25T19:52:57.415Z,2.90
2023-06-25T19:54:29.300Z,3.85
2023-06-25T19:56:01.128Z,3.30
2023-06-25T19:57:33.077Z,3.30
2023-06-25T19:59:04.921Z,3.30
2023-06-25T20:00:39.842Z,3.40
2023-06-25T20:02:12.416Z,3.80
2023-06-25T20:03:44.486Z,3.45
2023-06-25T20:05:19.235Z,3.60
2023-06-25T20:06:51.294Z,4.15
2023-06-25T20:08:23.202Z,3.25
2023-06-25T20:09:55.141Z,4.72
2023-06-25T20:11:26.992Z,3.70
2023-06-25T20:12:58.935Z,3.30
2023-06-25T20:14:31.985Z,3.58
2023-06-25T20:16:03.974Z,3.55
2023-06-25T20:17:35.831Z,3.40
2023-06-25T20:19:07.740Z,3.28
2023-06-25T20:20:39.794Z,3.45
2023-06-25T20:22:11.912Z,3.65
2023-06-25T20:23:43.752Z,3.90
2023-06-25T20:25:15.689Z,3.50
2023-06-25T20:26:47.964Z,3.95
2023-06-25T20:28:19.893Z,3.25
2023-06-25T20:29:51.705Z,3.40
2023-06-25T20:31:23.601Z,3.45